Time;durP1;ratioP1;P1;durP2;ratioP2;P2;SDS_P1;SDS_P2;PMS_P1;PMS_P2;Temp;Humidity;BMP_temperature;BMP_pressure;BME280_temperature;BME280_humidity;BME280_pressure;Samples;Min_cycle;Max_cycle;Signal;HPM_P1;HPM_P2
2023/06/08 00:00:13;;;;;;;3.47;3.15;;;;;;;;;;4993047;28;20415;-74
2023/06/08 00:02:42;;;;;;;4.95;3.25;;;;;;;;;;4992064;28;20105;-74
2023/06/08 00:05:13;;;;;;;3.22;2.88;;;;;;;;;;4992933;28;20054;-74
2023/06/08 00:07:43;;;;;;;4.03;2.85;;;;;;;;;;4992889;28;20137;-74
2023/06/08 00:10:10;;;;;;;3.15;2.85;;;;;;;;;;4992583;28;20055;-74
2023/06/08 00:12:37;;;;;;;3.20;2.90;;;;;;;;;;4992794;28;20513;-74
2023/06/08 00:15:06;;;;;;;3.45;3.10;;;;;;;;;;4992683;28;20140;-74
2023/06/08 00:17:33;;;;;;;5.50;3.33;;;;;;;;;;4992684;28;20137;-74
2023/06/08 00:20:00;;;;;;;4.30;2.92;;;;;;;;;;4993767;28;20057;-74
2023/06/08 00:22:27;;;;;;;4.82;3.00;;;;;;;;;;4992671;28;20388;-74
2023/06/08 00:24:54;;;;;;;4.10;3.17;;;;;;;;;;4992748;28;20073;-74
2023/06/08 00:27:21;;;;;;;3.40;2.83;;;;;;;;;;4992403;28;20473;-74
2023/06/08 00:29:48;;;;;;;3.00;2.72;;;;;;;;;;4993490;28;20104;-74
2023/06/08 00:32:14;;;;;;;4.13;2.97;;;;;;;;;;4993548;28;20055;-73
2023/06/08 00:34:41;;;;;;;3.40;3.10;;;;;;;;;;4992373;28;20062;-74
2023/06/08 00:37:08;;;;;;;4.85;3.10;;;;;;;;;;4992096;28;20054;-74
2023/06/08 00:39:35;;;;;;;4.63;3.22;;;;;;;;;;4992228;28;20542;-74
2023/06/08 00:42:02;;;;;;;5.63;3.60;;;;;;;;;;4992145;28;20136;-74
2023/06/08 00:44:29;;;;;;;3.38;3.08;;;;;;;;;;4992294;28;20058;-74
2023/06/08 00:46:56;;;;;;;3.45;3.15;;;;;;;;;;4992224;28;20050;-74
2023/06/08 00:49:22;;;;;;;4.00;3.30;;;;;;;;;;4992092;28;20181;-74
2023/06/08 00:51:49;;;;;;;5.65;3.15;;;;;;;;;;4991909;28;20066;-74
2023/06/08 00:54:16;;;;;;;4.55;3.22;;;;;;;;;;4991893;28;20097;-74
2023/06/08 00:56:48;;;;;;;3.90;3.50;;;;;;;;;;4992165;28;20054;-73
2023/06/08 00:59:16;;;;;;;3.83;3.35;;;;;;;;;;4991933;28;20046;-74
2023/06/08 01:01:44;;;;;;;3.95;3.65;;;;;;;;;;4975733;28;20109;-74
2023/06/08 01:04:14;;;;;;;4.13;3.05;;;;;;;;;;4991736;28;20065;-74
2023/06/08 01:06:45;;;;;;;3.67;3.25;;;;;;;;;;4991784;28;20467;-74
2023/06/08 01:09:27;;;;;;;4.63;3.17;;;;;;;;;;4991761;28;20085;-74
2023/06/08 01:12:06;;;;;;;3.63;2.93;;;;;;;;;;4991624;28;20058;-74
2023/06/08 01:14:42;;;;;;;3.20;2.90;;;;;;;;;;4991445;28;20065;-74
2023/06/08 01:17:09;;;;;;;3.25;3.05;;;;;;;;;;4975631;28;20054;-74
2023/06/08 01:19:52;;;;;;;4.80;2.78;;;;;;;;;;4991689;28;20046;-74
2023/06/08 01:22:35;;;;;;;4.55;3.13;;;;;;;;;;4991663;28;20058;-74
2023/06/08 01:25:02;;;;;;;3.50;3.20;;;;;;;;;;4991552;28;20058;-74
2023/06/08 01:27:36;;;;;;;3.78;3.40;;;;;;;;;;4991613;28;20116;-74
2023/06/08 01:30:05;;;;;;;3.65;3.35;;;;;;;;;;4991539;28;20050;-74
2023/06/08 01:32:32;;;;;;;3.80;3.42;;;;;;;;;;4991382;28;20054;-74
2023/06/08 01:35:00;;;;;;;4.38;3.22;;;;;;;;;;4993016;28;20065;-74
2023/06/08 01:37:33;;;;;;;3.22;2.92;;;;;;;;;;4991227;28;20058;-74
2023/06/08 01:40:22;;;;;;;3.28;2.97;;;;;;;;;;4991359;28;20058;-74
2023/06/08 01:42:49;;;;;;;4.22;3.40;;;;;;;;;;4991246;28;20503;-74
2023/06/08 01:45:23;;;;;;;4.65;3.60;;;;;;;;;;4991371;28;20054;-74
2023/06/08 01:47:56;;;;;;;3.75;3.45;;;;;;;;;;4991278;28;20058;-74
2023/06/08 01:50:23;;;;;;;5.13;3.60;;;;;;;;;;4991353;28;20050;-74
2023/06/08 01:52:50;;;;;;;3.65;3.35;;;;;;;;;;4991304;28;20116;-74
2023/06/08 01:55:18;;;;;;;4.13;3.80;;;;;;;;;;4991250;28;20105;-74
2023/06/08 01:57:45;;;;;;;4.90;3.53;;;;;;;;;;4991150;28;20050;-74
2023/06/08 02:00:14;;;;;;;3.72;3.42;;;;;;;;;;4990899;28;20506;-74
2023/06/08 02:02:41;;;;;;;3.63;3.33;;;;;;;;;;4991023;28;20055;-74
2023/06/08 02:05:10;;;;;;;4.10;3.70;;;;;;;;;;4991332;28;20054;-74
2023/06/08 02:07:40;;;;;;;4.03;3.63;;;;;;;;;;4991983;28;20138;-74
2023/06/08 02:10:08;;;;;;;3.83;3.42;;;;;;;;;;4991725;28;20051;-74
2023/06/08 02:12:35;;;;;;;4.57;3.80;;;;;;;;;;4998118;28;20137;-74
2023/06/08 02:15:02;;;;;;;3.97;3.20;;;;;;;;;;4991150;28;20051;-74
2023/06/08 02:17:33;;;;;;;5.03;3.58;;;;;;;;;;4991057;28;20090;-74
2023/06/08 02:20:05;;;;;;;4.13;3.47;;;;;;;;;;4990826;28;20105;-74
2023/06/08 02:22:35;;;;;;;4.20;3.80;;;;;;;;;;4991008;28;20059;-74
2023/06/08 02:25:04;;;;;;;3.83;3.53;;;;;;;;;;4991105;28;20109;-74
2023/06/08 02:27:35;;;;;;;5.18;4.03;;;;;;;;;;4994825;28;20055;-74
2023/06/08 02:30:07;;;;;;;4.18;3.78;;;;;;;;;;4994830;28;20050;-74
2023/06/08 02:32:35;;;;;;;4.05;3.65;;;;;;;;;;4994631;28;20062;-74
2023/06/08 02:35:02;;;;;;;3.95;3.58;;;;;;;;;;4994741;28;20097;-74
2023/06/08 02:37:30;;;;;;;6.40;3.92;;;;;;;;;;4995693;28;20093;-74
2023/06/08 02:39:57;;;;;;;4.60;3.80;;;;;;;;;;4994375;28;20462;-74
2023/06/08 02:42:24;;;;;;;4.45;4.05;;;;;;;;;;4994426;28;20050;-74
2023/06/08 02:44:51;;;;;;;7.18;3.83;;;;;;;;;;4994866;28;20109;-74
2023/06/08 02:47:19;;;;;;;3.80;3.50;;;;;;;;;;4994404;28;20403;-74
2023/06/08 02:49:46;;;;;;;4.70;4.10;;;;;;;;;;4994480;28;20081;-74
2023/06/08 02:52:12;;;;;;;4.25;3.85;;;;;;;;;;4994262;28;20053;-74
2023/06/08 02:54:39;;;;;;;5.78;4.10;;;;;;;;;;4994275;28;20058;-74
2023/06/08 02:57:06;;;;;;;4.10;3.78;;;;;;;;;;4994223;28;20054;-74
2023/06/08 02:59:33;;;;;;;4.30;3.90;;;;;;;;;;5002779;28;20034;-73
2023/06/08 03:02:00;;;;;;;4.45;4.05;;;;;;;;;;5020163;28;20073;-73
2023/06/08 03:04:28;;;;;;;5.72;4.20;;;;;;;;;;5020255;28;20042;-74
2023/06/08 03:06:55;;;;;;;4.90;3.90;;;;;;;;;;5020147;28;20160;-73
2023/06/08 03:09:23;;;;;;;7.22;3.30;;;;;;;;;;5019939;28;20061;-73
2023/06/08 03:11:51;;;;;;;4.30;3.83;;;;;;;;;;5019959;28;20087;-73
2023/06/08 03:14:18;;;;;;;4.70;3.92;;;;;;;;;;5020170;28;20042;-73
2023/06/08 03:16:45;;;;;;;4.40;4.00;;;;;;;;;;5019801;28;20042;-73
2023/06/08 03:19:13;;;;;;;4.68;4.20;;;;;;;;;;5020141;28;20066;-73
2023/06/08 03:21:41;;;;;;;4.28;3.88;;;;;;;;;;5019582;28;20093;-73
2023/06/08 03:24:08;;;;;;;4.40;3.65;;;;;;;;;;5017722;28;20034;-75
2023/06/08 03:26:36;;;;;;;4.32;4.03;;;;;;;;;;4995914;28;20483;-73
2023/06/08 03:29:03;;;;;;;4.78;3.92;;;;;;;;;;4995153;28;20392;-74
2023/06/08 03:31:36;;;;;;;4.32;3.95;;;;;;;;;;4995062;28;20081;-74
2023/06/08 03:34:07;;;;;;;4.30;3.97;;;;;;;;;;4994922;28;20517;-74
2023/06/08 03:36:35;;;;;;;5.05;4.43;;;;;;;;;;4994149;28;20462;-74
2023/06/08 03:39:02;;;;;;;4.75;3.65;;;;;;;;;;4993528;28;20152;-74
2023/06/08 03:41:29;;;;;;;6.65;3.72;;;;;;;;;;4995495;28;20446;-74
2023/06/08 03:43:56;;;;;;;4.85;3.95;;;;;;;;;;4994607;28;20506;-74
2023/06/08 03:46:24;;;;;;;4.32;3.60;;;;;;;;;;4993679;28;20054;-74
2023/06/08 03:48:51;;;;;;;4.95;4.30;;;;;;;;;;4994003;28;20050;-74
2023/06/08 03:51:20;;;;;;;4.13;3.70;;;;;;;;;;4999828;28;20050;-74
2023/06/08 03:53:48;;;;;;;4.50;4.10;;;;;;;;;;4994014;28;20054;-74
2023/06/08 03:56:15;;;;;;;5.07;4.57;;;;;;;;;;4993693;28;20050;-74
2023/06/08 03:58:42;;;;;;;8.23;4.18;;;;;;;;;;4993504;28;20058;-74
2023/06/08 04:01:12;;;;;;;4.85;3.80;;;;;;;;;;4992994;28;20066;-74
2023/06/08 04:03:39;;;;;;;4.78;4.30;;;;;;;;;;4993716;28;20058;-73
2023/06/08 04:06:08;;;;;;;4.30;3.90;;;;;;;;;;4993440;28;20054;-74
2023/06/08 04:08:39;;;;;;;5.18;3.92;;;;;;;;;;4993544;28;20054;-74
2023/06/08 04:11:07;;;;;;;5.25;4.57;;;;;;;;;;4993184;28;20487;-74
2023/06/08 04:13:40;;;;;;;4.68;4.07;;;;;;;;;;4993184;28;20062;-74
2023/06/08 04:16:09;;;;;;;5.03;4.53;;;;;;;;;;4993199;28;20077;-74
2023/06/08 04:18:37;;;;;;;4.75;4.28;;;;;;;;;;4992974;28;20529;-74
2023/06/08 04:21:05;;;;;;;4.60;4.20;;;;;;;;;;4992437;28;20521;-74
2023/06/08 04:23:33;;;;;;;4.72;4.32;;;;;;;;;;4993013;28;20128;-74
2023/06/08 04:26:04;;;;;;;5.68;4.20;;;;;;;;;;4992942;28;20054;-74
2023/06/08 04:28:32;;;;;;;4.53;4.13;;;;;;;;;;4992667;28;20081;-74
2023/06/08 04:30:59;;;;;;;4.45;4.05;;;;;;;;;;4976405;28;20131;-74
2023/06/08 04:33:30;;;;;;;4.30;3.92;;;;;;;;;;4992718;28;20054;-74
2023/06/08 04:35:57;;;;;;;6.15;4.82;;;;;;;;;;4992657;28;20060;-74
2023/06/08 04:38:25;;;;;;;4.38;3.90;;;;;;;;;;4992878;28;20109;-73
2023/06/08 04:40:53;;;;;;;5.15;4.65;;;;;;;;;;4992257;28;20051;-74
2023/06/08 04:43:21;;;;;;;4.30;3.90;;;;;;;;;;4992792;28;20193;-74
2023/06/08 04:46:00;;;;;;;5.35;4.70;;;;;;;;;;4992768;28;20133;-74
2023/06/08 04:48:27;;;;;;;6.82;4.65;;;;;;;;;;4992090;28;20433;-74
2023/06/08 04:50:59;;;;;;;5.22;4.40;;;;;;;;;;4992290;28;20050;-74
2023/06/08 04:53:26;;;;;;;4.80;4.32;;;;;;;;;;4992364;28;20062;-74
2023/06/08 04:55:59;;;;;;;4.32;3.92;;;;;;;;;;4992304;28;20094;-74
2023/06/08 04:58:26;;;;;;;4.70;4.30;;;;;;;;;;4992302;28;20058;-74
2023/06/08 05:00:53;;;;;;;6.07;4.10;;;;;;;;;;4991830;28;20047;-74
2023/06/08 05:03:21;;;;;;;5.53;4.40;;;;;;;;;;4992127;28;20141;-74
2023/06/08 05:05:48;;;;;;;4.97;4.32;;;;;;;;;;4992050;28;20108;-74
2023/06/08 05:08:15;;;;;;;4.78;3.88;;;;;;;;;;4992272;28;20136;-74
2023/06/08 05:10:42;;;;;;;4.30;3.80;;;;;;;;;;4993819;28;20518;-74
2023/06/08 05:13:09;;;;;;;4.30;3.90;;;;;;;;;;4996031;28;20046;-74
2023/06/08 05:15:36;;;;;;;4.47;4.00;;;;;;;;;;4994264;28;20075;-74
2023/06/08 05:18:03;;;;;;;5.22;4.38;;;;;;;;;;4992668;28;20081;-74
2023/06/08 05:20:30;;;;;;;4.82;3.92;;;;;;;;;;4991847;28;20506;-74
2023/06/08 05:22:58;;;;;;;4.72;4.03;;;;;;;;;;4992199;28;20078;-74
2023/06/08 05:25:34;;;;;;;5.88;4.22;;;;;;;;;;4992298;28;20141;-74
2023/06/08 05:28:00;;;;;;;6.25;4.18;;;;;;;;;;4992395;28;20065;-74
2023/06/08 05:30:27;;;;;;;5.22;4.40;;;;;;;;;;4991851;28;20093;-74
2023/06/08 05:32:55;;;;;;;4.38;3.97;;;;;;;;;;4991551;28;20065;-74
2023/06/08 05:35:22;;;;;;;4.60;4.20;;;;;;;;;;4992077;28;20058;-74
2023/06/08 05:37:49;;;;;;;4.95;3.83;;;;;;;;;;4992105;28;20062;-74
2023/06/08 05:40:17;;;;;;;4.57;4.18;;;;;;;;;;4992328;28;20381;-74
2023/06/08 05:42:44;;;;;;;6.10;4.47;;;;;;;;;;4991249;28;20058;-74
2023/06/08 05:45:11;;;;;;;4.80;4.10;;;;;;;;;;4993213;28;20407;-74
2023/06/08 05:47:38;;;;;;;5.07;4.57;;;;;;;;;;4991692;28;20054;-74
2023/06/08 05:50:06;;;;;;;6.55;4.43;;;;;;;;;;4991117;28;20054;-74
2023/06/08 05:52:33;;;;;;;4.13;3.70;;;;;;;;;;4991181;28;20093;-74
2023/06/08 05:55:00;;;;;;;4.38;3.97;;;;;;;;;;4993550;28;20466;-73
2023/06/08 05:57:27;;;;;;;4.55;4.13;;;;;;;;;;4991244;28;20117;-74
2023/06/08 05:59:54;;;;;;;4.80;4.40;;;;;;;;;;4990990;28;20058;-73
2023/06/08 06:02:21;;;;;;;4.45;4.05;;;;;;;;;;4995037;28;20073;-74
2023/06/08 06:04:48;;;;;;;4.82;3.95;;;;;;;;;;4995634;28;20050;-74
2023/06/08 06:07:15;;;;;;;3.85;3.55;;;;;;;;;;4996229;28;20089;-74
2023/06/08 06:09:42;;;;;;;5.55;4.10;;;;;;;;;;5003228;28;20054;-75
2023/06/08 06:12:09;;;;;;;4.32;3.65;;;;;;;;;;4996490;28;20124;-74
2023/06/08 06:14:37;;;;;;;4.13;3.83;;;;;;;;;;4995287;28;20054;-74
2023/06/08 06:17:05;;;;;;;4.72;4.30;;;;;;;;;;4995041;28;20061;-74
2023/06/08 06:19:37;;;;;;;4.97;4.20;;;;;;;;;;4995245;28;20112;-74
2023/06/08 06:22:06;;;;;;;6.28;3.60;;;;;;;;;;4995085;28;20097;-74
2023/06/08 06:24:33;;;;;;;6.15;3.80;;;;;;;;;;4994909;28;20050;-75
2023/06/08 06:27:00;;;;;;;4.38;3.30;;;;;;;;;;4994857;28;20050;-74
2023/06/08 06:29:27;;;;;;;3.58;3.25;;;;;;;;;;4994953;28;20081;-74
2023/06/08 06:31:54;;;;;;;3.92;3.38;;;;;;;;;;4995129;28;20062;-74
2023/06/08 06:34:21;;;;;;;4.15;3.65;;;;;;;;;;4994852;28;20431;-74
2023/06/08 06:36:48;;;;;;;7.25;3.67;;;;;;;;;;4994673;28;20422;-74
2023/06/08 06:39:15;;;;;;;5.30;3.42;;;;;;;;;;4994527;28;20132;-74
2023/06/08 06:41:42;;;;;;;4.68;3.63;;;;;;;;;;4993796;28;20395;-74
2023/06/08 06:44:09;;;;;;;5.50;4.30;;;;;;;;;;4994526;28;20050;-75
2023/06/08 06:46:35;;;;;;;3.80;3.50;;;;;;;;;;4994262;28;20058;-75
2023/06/08 06:49:02;;;;;;;3.47;3.15;;;;;;;;;;4994185;28;20054;-75
2023/06/08 06:51:29;;;;;;;4.00;3.55;;;;;;;;;;4994109;28;20050;-75
2023/06/08 06:53:56;;;;;;;5.15;3.20;;;;;;;;;;4994260;28;20058;-74
2023/06/08 06:56:23;;;;;;;5.25;3.30;;;;;;;;;;4994266;28;20059;-75
2023/06/08 06:58:52;;;;;;;5.68;4.20;;;;;;;;;;4994242;28;20054;-74
2023/06/08 07:01:19;;;;;;;5.63;3.92;;;;;;;;;;4993938;28;20418;-75
2023/06/08 07:03:46;;;;;;;3.28;2.97;;;;;;;;;;4994191;28;20427;-75
2023/06/08 07:06:13;;;;;;;5.28;3.90;;;;;;;;;;4994044;28;20050;-74
2023/06/08 07:08:41;;;;;;;4.03;3.20;;;;;;;;;;4994384;28;20058;-74
2023/06/08 07:11:08;;;;;;;4.05;3.33;;;;;;;;;;4993860;28;20065;-74
2023/06/08 07:13:35;;;;;;;5.78;3.30;;;;;;;;;;4994333;28;20416;-74
2023/06/08 07:16:03;;;;;;;3.38;3.00;;;;;;;;;;4993906;28;20061;-75
2023/06/08 07:18:30;;;;;;;5.32;3.78;;;;;;;;;;4994018;28;20051;-75
2023/06/08 07:20:57;;;;;;;6.45;3.47;;;;;;;;;;4993615;28;20054;-74
2023/06/08 07:23:25;;;;;;;3.88;3.03;;;;;;;;;;4978192;28;20086;-74
2023/06/08 07:26:11;;;;;;;3.85;3.20;;;;;;;;;;4995676;28;20482;-75
2023/06/08 07:28:59;;;;;;;4.18;3.47;;;;;;;;;;4994031;28;20061;-74
2023/06/08 07:31:27;;;;;;;4.00;3.28;;;;;;;;;;4993465;28;20512;-75
2023/06/08 07:33:55;;;;;;;3.47;2.95;;;;;;;;;;4993629;28;20061;-74
2023/06/08 07:36:22;;;;;;;3.33;2.95;;;;;;;;;;4993517;28;20058;-75
2023/06/08 07:38:50;;;;;;;3.72;3.00;;;;;;;;;;4993639;28;20112;-74
2023/06/08 07:41:18;;;;;;;3.88;3.47;;;;;;;;;;4993061;28;20046;-74
2023/06/08 07:43:45;;;;;;;4.18;3.17;;;;;;;;;;4993402;28;20058;-74
2023/06/08 07:46:12;;;;;;;3.45;3.00;;;;;;;;;;4993091;28;20129;-75
2023/06/08 07:48:39;;;;;;;5.07;2.70;;;;;;;;;;4993509;28;20421;-74
2023/06/08 07:51:06;;;;;;;3.20;2.90;;;;;;;;;;4993109;28;20057;-74
2023/06/08 07:53:37;;;;;;;3.47;2.95;;;;;;;;;;4993435;28;20470;-75
2023/06/08 07:56:04;;;;;;;2.90;2.67;;;;;;;;;;4993034;28;20514;-74
2023/06/08 07:58:31;;;;;;;6.05;3.55;;;;;;;;;;4993232;28;20054;-74
2023/06/08 08:00:58;;;;;;;4.30;3.22;;;;;;;;;;4992562;28;20052;-74
2023/06/08 08:03:25;;;;;;;4.57;3.10;;;;;;;;;;4993332;28;20054;-74
2023/06/08 08:05:52;;;;;;;4.22;3.15;;;;;;;;;;4992820;28;20054;-74
2023/06/08 08:08:20;;;;;;;4.07;3.13;;;;;;;;;;4993058;28;20058;-75
2023/06/08 08:10:47;;;;;;;3.22;3.00;;;;;;;;;;4992733;28;20050;-74
2023/06/08 08:13:13;;;;;;;2.75;2.55;;;;;;;;;;5000203;28;20058;-74
2023/06/08 08:15:40;;;;;;;3.67;3.25;;;;;;;;;;4993211;28;20106;-74
2023/06/08 08:18:07;;;;;;;4.05;3.45;;;;;;;;;;4993273;28;20062;-74
2023/06/08 08:20:34;;;;;;;3.50;3.20;;;;;;;;;;4992902;28;20054;-74
2023/06/08 08:23:01;;;;;;;4.45;3.67;;;;;;;;;;4992216;28;20062;-74
2023/06/08 08:25:28;;;;;;;3.13;2.83;;;;;;;;;;4993239;28;20054;-74
2023/06/08 08:27:54;;;;;;;3.03;2.67;;;;;;;;;;4993679;28;20489;-74
2023/06/08 08:30:21;;;;;;;4.68;3.30;;;;;;;;;;4992424;28;20109;-74
2023/06/08 08:32:48;;;;;;;3.58;3.15;;;;;;;;;;4992703;28;20061;-74
2023/06/08 08:35:16;;;;;;;3.10;2.80;;;;;;;;;;4992797;28;20141;-74
2023/06/08 08:37:43;;;;;;;4.68;3.72;;;;;;;;;;4992703;28;20149;-74
2023/06/08 08:40:11;;;;;;;4.22;3.83;;;;;;;;;;4992670;28;20427;-75
2023/06/08 08:42:44;;;;;;;3.85;3.20;;;;;;;;;;4992337;28;20050;-74
2023/06/08 08:45:13;;;;;;;4.03;3.38;;;;;;;;;;4992857;28;20470;-74
2023/06/08 08:47:40;;;;;;;5.05;3.78;;;;;;;;;;4992200;28;20050;-74
2023/06/08 08:50:09;;;;;;;4.07;3.67;;;;;;;;;;4992232;28;20054;-75
2023/06/08 08:52:38;;;;;;;3.95;3.65;;;;;;;;;;4992131;28;20046;-74
2023/06/08 08:55:06;;;;;;;4.10;3.67;;;;;;;;;;4991993;28;20081;-74
2023/06/08 08:57:41;;;;;;;3.97;3.67;;;;;;;;;;4991977;28;20064;-74
2023/06/08 09:00:10;;;;;;;4.55;3.70;;;;;;;;;;4991871;28;20050;-75
2023/06/08 09:02:36;;;;;;;6.70;3.85;;;;;;;;;;4991896;28;20104;-74
2023/06/08 09:05:05;;;;;;;4.13;3.72;;;;;;;;;;4991809;28;20050;-74
2023/06/08 09:07:32;;;;;;;6.43;4.20;;;;;;;;;;4991649;28;20132;-74
2023/06/08 09:10:18;;;;;;;5.65;3.80;;;;;;;;;;4991984;28;20058;-75
2023/06/08 09:12:47;;;;;;;5.10;3.63;;;;;;;;;;4991862;28;20050;-74
2023/06/08 09:15:24;;;;;;;5.00;3.92;;;;;;;;;;4992020;28;20124;-74
2023/06/08 09:17:53;;;;;;;5.30;3.88;;;;;;;;;;4991794;28;20462;-74
2023/06/08 09:20:27;;;;;;;4.70;3.47;;;;;;;;;;4991577;28;20141;-74
2023/06/08 09:22:55;;;;;;;3.70;3.30;;;;;;;;;;4991985;28;20080;-74
2023/06/08 09:25:42;;;;;;;4.95;3.78;;;;;;;;;;4991661;28;20569;-74
2023/06/08 09:28:18;;;;;;;4.70;3.58;;;;;;;;;;4990913;28;20050;-74
2023/06/08 09:30:48;;;;;;;5.07;3.50;;;;;;;;;;4991570;28;20416;-74
2023/06/08 09:33:24;;;;;;;3.78;3.40;;;;;;;;;;4991587;28;20062;-74
2023/06/08 09:35:57;;;;;;;4.70;3.13;;;;;;;;;;4991433;28;20521;-75
2023/06/08 09:38:29;;;;;;;3.92;3.63;;;;;;;;;;4991569;28;20057;-74
2023/06/08 09:41:15;;;;;;;5.00;4.03;;;;;;;;;;4991034;28;20054;-74
2023/06/08 09:43:43;;;;;;;5.20;4.03;;;;;;;;;;4991362;28;20391;-74
2023/06/08 09:46:31;;;;;;;6.05;4.43;;;;;;;;;;4991747;28;20058;-74
2023/06/08 09:48:58;;;;;;;6.15;4.25;;;;;;;;;;4991391;28;20141;-74
2023/06/08 09:51:25;;;;;;;6.05;4.53;;;;;;;;;;4975062;28;20426;-74
2023/06/08 09:53:57;;;;;;;5.88;4.13;;;;;;;;;;4991551;28;20054;-74
2023/06/08 09:56:25;;;;;;;8.20;3.88;;;;;;;;;;4991390;28;20058;-74
2023/06/08 09:58:56;;;;;;;6.50;4.43;;;;;;;;;;4991477;28;20466;-74
2023/06/08 10:01:32;;;;;;;4.35;3.95;;;;;;;;;;4991105;28;20114;-74
2023/06/08 10:04:00;;;;;;;5.25;3.65;;;;;;;;;;4995194;28;20137;-74
2023/06/08 10:06:31;;;;;;;3.95;3.65;;;;;;;;;;4992886;28;20062;-74
2023/06/08 10:08:58;;;;;;;6.15;4.50;;;;;;;;;;4975049;28;20133;-74
2023/06/08 10:11:25;;;;;;;3.97;3.58;;;;;;;;;;4991916;28;20047;-74
2023/06/08 10:13:52;;;;;;;4.18;3.70;;;;;;;;;;4976135;28;20053;-74
2023/06/08 10:16:20;;;;;;;4.50;4.07;;;;;;;;;;4991121;28;20142;-74
2023/06/08 10:18:47;;;;;;;4.32;3.47;;;;;;;;;;4992085;28;20055;-75
2023/06/08 10:21:14;;;;;;;4.32;3.92;;;;;;;;;;5008975;28;20065;-74
2023/06/08 10:23:40;;;;;;;4.32;3.90;;;;;;;;;;4975452;28;20462;-74
2023/06/08 10:26:07;;;;;;;4.13;3.72;;;;;;;;;;5007212;28;20061;-74
2023/06/08 10:28:34;;;;;;;4.30;3.90;;;;;;;;;;4991061;28;20522;-74
2023/06/08 10:31:31;;;;;;;5.35;4.35;;;;;;;;;;4990814;28;20062;-74
2023/06/08 10:33:58;;;;;;;4.20;3.83;;;;;;;;;;4975571;28;20426;-74
2023/06/08 10:36:42;;;;;;;7.35;3.83;;;;;;;;;;4991384;28;20054;-74
2023/06/08 10:39:12;;;;;;;6.85;3.53;;;;;;;;;;4991957;28;20065;-75
2023/06/08 10:41:41;;;;;;;5.82;4.30;;;;;;;;;;4991902;28;20137;-74
2023/06/08 10:44:29;;;;;;;4.22;3.83;;;;;;;;;;5010277;28;20054;-74
2023/06/08 10:47:02;;;;;;;4.43;4.03;;;;;;;;;;4992103;28;20054;-74
2023/06/08 10:49:36;;;;;;;4.38;3.97;;;;;;;;;;4994577;28;20054;-74
2023/06/08 10:52:04;;;;;;;6.40;4.05;;;;;;;;;;4994037;28;20050;-75
2023/06/08 10:54:46;;;;;;;4.25;3.80;;;;;;;;;;4994788;28;20478;-74
2023/06/08 10:57:34;;;;;;;4.35;3.95;;;;;;;;;;5008993;28;20121;-74
2023/06/08 11:00:00;;;;;;;4.80;4.25;;;;;;;;;;4980777;28;20046;-74
2023/06/08 11:02:30;;;;;;;7.05;4.10;;;;;;;;;;4986208;28;20446;-76
2023/06/08 11:04:58;;;;;;;3.85;3.55;;;;;;;;;;4958886;28;20069;-76
2023/06/08 11:07:25;;;;;;;4.50;4.10;;;;;;;;;;4978548;28;20108;-75
2023/06/08 11:09:52;;;;;;;4.15;3.78;;;;;;;;;;4995236;28;20133;-75
2023/06/08 11:12:19;;;;;;;5.28;4.00;;;;;;;;;;5000148;28;20109;-75
2023/06/08 11:14:53;;;;;;;4.75;4.30;;;;;;;;;;4979606;28;20058;-78
2023/06/08 11:17:20;;;;;;;4.55;4.15;;;;;;;;;;4963677;28;20054;-73
2023/06/08 11:19:47;;;;;;;5.00;4.53;;;;;;;;;;4962594;28;20058;-73
2023/06/08 11:22:13;;;;;;;4.72;4.32;;;;;;;;;;4993249;28;20414;-75
2023/06/08 11:24:42;;;;;;;5.00;4.05;;;;;;;;;;4995318;28;20089;-85
2023/06/08 11:27:16;;;;;;;4.13;3.83;;;;;;;;;;4985396;28;20046;-85
2023/06/08 11:29:46;;;;;;;5.03;4.63;;;;;;;;;;4972669;28;20050;-86
2023/06/08 11:32:15;;;;;;;4.78;4.38;;;;;;;;;;4972163;28;20109;-73
2023/06/08 11:34:45;;;;;;;5.03;4.63;;;;;;;;;;4970275;28;20063;-72
2023/06/08 11:37:17;;;;;;;4.35;4.05;;;;;;;;;;4976317;28;20134;-73
2023/06/08 11:39:45;;;;;;;4.68;4.28;;;;;;;;;;4959762;28;20113;-73
2023/06/08 11:42:13;;;;;;;4.70;4.30;;;;;;;;;;4990694;28;20081;-72
2023/06/08 11:44:40;;;;;;;4.50;4.10;;;;;;;;;;4974991;28;20060;-73
2023/06/08 11:47:09;;;;;;;5.28;4.03;;;;;;;;;;4975194;28;20466;-73
2023/06/08 11:49:57;;;;;;;4.55;4.15;;;;;;;;;;4959714;28;20050;-73
2023/06/08 11:52:25;;;;;;;4.97;4.55;;;;;;;;;;4959783;28;20051;-73
2023/06/08 11:54:56;;;;;;;4.93;4.53;;;;;;;;;;4974894;28;20065;-73
2023/06/08 11:57:37;;;;;;;4.85;4.38;;;;;;;;;;4975123;28;20701;-73
2023/06/08 12:00:09;;;;;;;5.30;4.80;;;;;;;;;;4956610;28;20046;-73
2023/06/08 12:02:36;;;;;;;;;;;;;;;;;;4977699;28;20526;-80
2023/06/08 12:05:05;;;;;;;4.20;3.90;;;;;;;;;;4995175;28;20033;-71
2023/06/08 12:07:35;;;;;;;4.50;4.10;;;;;;;;;;4975069;28;20085;-72
2023/06/08 12:10:02;;;;;;;4.50;4.10;;;;;;;;;;4974930;28;20054;-71
2023/06/08 12:12:30;;;;;;;4.57;4.18;;;;;;;;;;4958898;28;20058;-72
2023/06/08 12:14:57;;;;;;;3.97;3.67;;;;;;;;;;4958497;28;20604;-72
2023/06/08 12:17:25;;;;;;;4.28;3.88;;;;;;;;;;4958592;28;20132;-74
2023/06/08 12:19:53;;;;;;;4.55;4.15;;;;;;;;;;4966293;28;20108;-73
2023/06/08 12:22:19;;;;;;;4.78;4.20;;;;;;;;;;4975999;28;20054;-77
2023/06/08 12:24:47;;;;;;;4.10;3.80;;;;;;;;;;4970071;28;20105;-83
2023/06/08 12:27:14;;;;;;;4.55;3.83;;;;;;;;;;4967965;28;20062;-82
2023/06/08 12:29:41;;;;;;;8.60;3.97;;;;;;;;;;4978605;28;20108;-84
2023/06/08 12:32:09;;;;;;;6.10;3.80;;;;;;;;;;4968803;28;20046;-83
2023/06/08 12:34:36;;;;;;;6.50;3.90;;;;;;;;;;4987740;28;20058;-79
2023/06/08 12:37:03;;;;;;;3.97;3.53;;;;;;;;;;4970259;28;20137;-73
2023/06/08 12:39:30;;;;;;;6.45;3.33;;;;;;;;;;4944992;28;20065;-73
2023/06/08 12:41:58;;;;;;;5.63;3.22;;;;;;;;;;4960030;28;20141;-73
2023/06/08 12:44:25;;;;;;;8.05;4.50;;;;;;;;;;4969770;28;20069;-75
2023/06/08 12:46:53;;;;;;;8.23;3.97;;;;;;;;;;4985642;28;20582;-74
2023/06/08 12:49:20;;;;;;;5.68;3.88;;;;;;;;;;4988384;28;20045;-78
2023/06/08 12:51:47;;;;;;;6.05;4.38;;;;;;;;;;4979197;28;20062;-77
2023/06/08 12:54:13;;;;;;;8.43;4.20;;;;;;;;;;4978831;28;20470;-77
2023/06/08 12:56:40;;;;;;;7.57;5.07;;;;;;;;;;4988849;28;20047;-77
2023/06/08 12:59:08;;;;;;;10.88;4.38;;;;;;;;;;4988811;28;20050;-76
2023/06/08 13:01:35;;;;;;;12.52;5.63;;;;;;;;;;4984647;28;20046;-76
2023/06/08 13:04:03;;;;;;;21.67;6.78;;;;;;;;;;4989681;28;20421;-76
2023/06/08 13:06:31;;;;;;;12.88;6.22;;;;;;;;;;4980406;28;20054;-76
2023/06/08 13:08:58;;;;;;;9.18;6.18;;;;;;;;;;4982510;28;20054;-77
2023/06/08 13:11:28;;;;;;;9.63;5.90;;;;;;;;;;4971941;28;20142;-79
2023/06/08 13:14:00;;;;;;;7.38;5.70;;;;;;;;;;4981676;28;20085;-79
2023/06/08 13:16:27;;;;;;;9.48;5.32;;;;;;;;;;4972092;28;20054;-79
2023/06/08 13:18:54;;;;;;;7.35;5.50;;;;;;;;;;4979138;28;20188;-77
2023/06/08 13:21:21;;;;;;;7.22;5.70;;;;;;;;;;4977375;28;20059;-78
2023/06/08 13:23:48;;;;;;;9.82;6.43;;;;;;;;;;4980440;28;20057;-77
2023/06/08 13:26:18;;;;;;;8.73;5.63;;;;;;;;;;4990507;28;20050;-77
2023/06/08 13:28:46;;;;;;;10.02;6.15;;;;;;;;;;4964809;28;20507;-77
2023/06/08 13:31:13;;;;;;;7.47;5.72;;;;;;;;;;4985813;28;20486;-77
2023/06/08 13:33:40;;;;;;;8.38;7.10;;;;;;;;;;4977793;28;20057;-77
2023/06/08 13:36:06;;;;;;;10.95;8.57;;;;;;;;;;4984053;28;20459;-77
2023/06/08 13:38:33;;;;;;;12.25;9.48;;;;;;;;;;4950648;28;20058;-77
2023/06/08 13:41:00;;;;;;;15.85;10.43;;;;;;;;;;4969652;28;20092;-77
2023/06/08 13:43:27;;;;;;;14.88;9.98;;;;;;;;;;4987880;28;20098;-77
2023/06/08 13:45:57;;;;;;;12.73;9.15;;;;;;;;;;4980612;28;20057;-77
2023/06/08 13:48:26;;;;;;;10.60;7.55;;;;;;;;;;4980679;28;20051;-77
2023/06/08 13:50:53;;;;;;;8.32;7.45;;;;;;;;;;4961413;28;20058;-76
2023/06/08 13:53:21;;;;;;;11.40;8.70;;;;;;;;;;4960392;28;20058;-76
2023/06/08 13:55:48;;;;;;;12.10;8.43;;;;;;;;;;4978263;28;20134;-76
2023/06/08 13:58:15;;;;;;;12.98;8.13;;;;;;;;;;4980909;28;20050;-76
2023/06/08 14:00:42;;;;;;;9.50;8.60;;;;;;;;;;4972273;28;20061;-76
2023/06/08 14:03:09;;;;;;;9.48;8.48;;;;;;;;;;4975794;28;20055;-76
2023/06/08 14:05:39;;;;;;;11.15;9.25;;;;;;;;;;4993036;28;20050;-75
2023/06/08 14:08:06;;;;;;;12.50;9.48;;;;;;;;;;4981566;28;20055;-76
2023/06/08 14:10:33;;;;;;;10.43;9.32;;;;;;;;;;4979916;28;20054;-76
2023/06/08 14:13:00;;;;;;;8.77;7.50;;;;;;;;;;4972120;28;20247;-77
2023/06/08 14:15:27;;;;;;;10.77;7.55;;;;;;;;;;4981289;28;20113;-77
2023/06/08 14:17:56;;;;;;;10.13;7.25;;;;;;;;;;4947476;28;20055;-89
2023/06/08 14:20:27;;;;;;;7.65;6.95;;;;;;;;;;4968510;28;20075;-87
2023/06/08 14:22:54;;;;;;;8.27;6.95;;;;;;;;;;4984816;28;20043;-82
2023/06/08 14:25:21;;;;;;;6.88;6.22;;;;;;;;;;4986346;28;20086;-79
2023/06/08 14:27:49;;;;;;;9.30;7.60;;;;;;;;;;4996605;28;20060;-79
2023/06/08 14:30:16;;;;;;;8.68;7.05;;;;;;;;;;4979238;28;20137;-82
2023/06/08 14:32:44;;;;;;;8.10;7.28;;;;;;;;;;4971958;28;20097;-79
2023/06/08 14:35:11;;;;;;;8.52;7.60;;;;;;;;;;4985232;28;20062;-80
2023/06/08 14:37:38;;;;;;;9.38;8.00;;;;;;;;;;4979188;28;20061;-80
2023/06/08 14:40:06;;;;;;;8.95;7.32;;;;;;;;;;4991776;28;20060;-80
2023/06/08 14:42:34;;;;;;;8.00;6.95;;;;;;;;;;5003752;28;20053;-80
2023/06/08 14:45:01;;;;;;;7.70;6.90;;;;;;;;;;4982117;28;20093;-80
2023/06/08 14:47:28;;;;;;;8.55;7.65;;;;;;;;;;4988464;28;20058;-80
2023/06/08 14:49:55;;;;;;;9.75;7.50;;;;;;;;;;4985937;28;20054;-80
2023/06/08 14:52:22;;;;;;;10.23;9.05;;;;;;;;;;5007680;28;20077;-80